Time;durP1;ratioP1;P1;durP2;ratioP2;P2;SDS_P1;SDS_P2;PMS_P1;PMS_P2;Temp;Humidity;BMP_temperature;BMP_pressure;BME280_temperature;BME280_humidity;BME280_pressure;Samples;Min_cycle;Max_cycle;Signal;HPM_P1;HPM_P2
2022/12/07 00:01:06;;;;;;;4.80;2.30;;;13.40;92.30;;;;;;5008040;28;20487;-90
2022/12/07 00:03:32;;;;;;;12.20;2.30;;;13.40;92.30;;;;;;4993396;28;20026;-91
2022/12/07 00:05:58;;;;;;;3.95;1.88;;;13.40;92.30;;;;;;5012171;28;20026;-90
2022/12/07 00:08:24;;;;;;;5.88;2.25;;;13.30;92.30;;;;;;5011949;28;20332;-90
2022/12/07 00:10:49;;;;;;;6.40;2.10;;;13.40;92.40;;;;;;5011915;28;20514;-90
2022/12/07 00:13:15;;;;;;;6.53;1.70;;;13.40;92.40;;;;;;5016370;28;20113;-89
2022/12/07 00:15:41;;;;;;;3.75;1.65;;;13.40;92.40;;;;;;5031142;28;20173;-89
2022/12/07 00:18:06;;;;;;;6.68;2.22;;;13.30;92.40;;;;;;5014932;28;20031;-90
2022/12/07 00:20:33;;;;;;;4.85;2.20;;;13.40;92.50;;;;;;5011724;28;20073;-89
2022/12/07 00:22:58;;;;;;;3.53;1.95;;;13.40;92.50;;;;;;5011687;28;20085;-90
2022/12/07 00:25:24;;;;;;;6.38;2.25;;;13.40;92.50;;;;;;5028792;28;20030;-90
2022/12/07 00:27:50;;;;;;;12.85;2.13;;;13.30;92.60;;;;;;5022551;28;20027;-90
2022/12/07 00:30:15;;;;;;;2.92;1.65;;;13.40;92.60;;;;;;5013531;28;20076;-89
2022/12/07 00:32:41;;;;;;;5.18;2.42;;;13.30;92.60;;;;;;5014879;28;20022;-90
2022/12/07 00:35:07;;;;;;;3.58;2.13;;;13.30;92.60;;;;;;5014589;28;20157;-89
2022/12/07 00:37:32;;;;;;;6.53;1.98;;;13.30;92.60;;;;;;5031136;28;20356;-90
2022/12/07 00:39:58;;;;;;;9.98;2.22;;;13.30;92.70;;;;;;5031076;28;20033;-90
2022/12/07 00:42:23;;;;;;;4.55;1.98;;;13.40;93.00;;;;;;5018896;28;20039;-90
2022/12/07 00:44:49;;;;;;;3.78;2.00;;;13.30;92.70;;;;;;5011174;28;20506;-91
2022/12/07 00:47:14;;;;;;;8.35;2.13;;;13.30;92.70;;;;;;5011229;28;20562;-90
2022/12/07 00:49:40;;;;;;;3.67;2.05;;;13.30;92.70;;;;;;5011421;28;20496;-89
2022/12/07 00:52:05;;;;;;;4.50;2.13;;;13.30;92.70;;;;;;5010971;28;20757;-91
2022/12/07 00:54:31;;;;;;;4.38;2.05;;;13.30;92.70;;;;;;5022678;28;20049;-90
2022/12/07 00:56:56;;;;;;;7.78;2.00;;;13.30;92.80;;;;;;5030763;28;20030;-90
2022/12/07 00:59:22;;;;;;;5.47;2.33;;;13.30;92.70;;;;;;5030672;28;20033;-90
2022/12/07 01:01:48;;;;;;;3.40;2.08;;;13.30;92.80;;;;;;5030565;28;20566;-90
2022/12/07 01:04:13;;;;;;;4.22;2.00;;;13.30;92.80;;;;;;5030250;28;20030;-89
2022/12/07 01:06:39;;;;;;;13.20;2.47;;;13.30;93.00;;;;;;5030506;28;20026;-90
2022/12/07 01:09:05;;;;;;;13.25;1.92;;;13.30;93.10;;;;;;5030403;28;20030;-89
2022/12/07 01:11:31;;;;;;;8.52;2.55;;;13.30;93.00;;;;;;5030651;28;20108;-90
2022/12/07 01:13:58;;;;;;;7.63;2.28;;;13.30;93.00;;;;;;5025137;28;20496;-90
2022/12/07 01:16:26;;;;;;;5.78;2.10;;;13.30;93.00;;;;;;5009914;28;20040;-89
2022/12/07 01:18:53;;;;;;;5.13;1.80;;;13.30;93.00;;;;;;5016878;28;20026;-89
2022/12/07 01:21:24;;;;;;;3.95;1.75;;;13.30;93.10;;;;;;5030290;28;20026;-90
2022/12/07 01:23:51;;;;;;;3.10;2.35;;;13.30;93.10;;;;;;5030363;28;20054;-90
2022/12/07 01:26:19;;;;;;;4.07;2.30;;;13.30;93.10;;;;;;5030338;28;20109;-91
2022/12/07 01:28:45;;;;;;;4.28;2.03;;;13.30;93.10;;;;;;5029812;28;20542;-90
2022/12/07 01:31:14;;;;;;;11.15;2.05;;;13.30;93.20;;;;;;5026977;28;20026;-90
2022/12/07 01:33:41;;;;;;;5.70;2.05;;;13.30;93.20;;;;;;5010775;28;20392;-89
2022/12/07 01:36:16;;;;;;;4.43;2.10;;;13.30;93.20;;;;;;5010289;28;20033;-90
2022/12/07 01:38:42;;;;;;;5.22;1.80;;;13.30;93.20;;;;;;5010013;28;20026;-90
2022/12/07 01:41:08;;;;;;;4.78;1.92;;;13.30;93.20;;;;;;5017202;28;20117;-90
2022/12/07 01:43:35;;;;;;;3.30;1.90;;;13.30;93.20;;;;;;5019190;28;20073;-90
2022/12/07 01:46:02;;;;;;;6.32;1.65;;;13.30;93.20;;;;;;4993778;28;20069;-90
2022/12/07 01:48:38;;;;;;;3.50;2.25;;;13.30;93.20;;;;;;4993516;28;20038;-89
2022/12/07 01:51:08;;;;;;;4.38;1.80;;;13.20;93.20;;;;;;4993686;28;20026;-90
2022/12/07 01:53:35;;;;;;;;;;;13.20;93.20;;;;;;4995661;28;20053;-90
2022/12/07 01:56:01;;;;;;;1.90;1.60;;;13.30;93.20;;;;;;5013320;28;19911;-90
2022/12/07 01:58:28;;;;;;;4.57;1.70;;;13.30;93.30;;;;;;5012989;28;20049;-89
2022/12/07 02:00:53;;;;;;;5.30;2.17;;;13.30;93.40;;;;;;5013052;28;20076;-91
2022/12/07 02:03:21;;;;;;;5.15;1.73;;;13.30;93.40;;;;;;5010854;28;20527;-93
2022/12/07 02:05:47;;;;;;;4.88;1.73;;;13.30;93.40;;;;;;4993466;28;20033;-90
2022/12/07 02:08:13;;;;;;;8.57;2.38;;;13.30;93.50;;;;;;5009326;28;20452;-90
2022/12/07 02:10:39;;;;;;;3.70;1.77;;;13.30;93.50;;;;;;5009756;28;20036;-90
2022/12/07 02:13:19;;;;;;;6.60;2.53;;;13.30;93.50;;;;;;5009491;28;20109;-89
2022/12/07 02:16:11;;;;;;;10.05;1.98;;;13.30;93.50;;;;;;5009705;28;20022;-90
2022/12/07 02:19:11;;;;;;;4.22;2.10;;;13.30;93.50;;;;;;4992969;28;20475;-90
2022/12/07 02:22:14;;;;;;;3.80;2.00;;;13.30;93.50;;;;;;4993118;28;20061;-90
2022/12/07 02:25:08;;;;;;;8.27;1.80;;;13.30;93.50;;;;;;5004550;28;20036;-90
2022/12/07 02:28:09;;;;;;;2.53;1.60;;;13.20;93.50;;;;;;5012403;28;20033;-90
2022/12/07 02:30:44;;;;;;;4.13;1.83;;;13.20;93.50;;;;;;4975363;28;20407;-89
2022/12/07 02:33:32;;;;;;;5.05;2.10;;;13.20;93.50;;;;;;4975804;28;20602;-88
2022/12/07 02:36:17;;;;;;;9.38;2.55;;;13.20;93.60;;;;;;4975695;28;20419;-90
2022/12/07 02:38:59;;;;;;;5.97;1.90;;;13.20;93.60;;;;;;4969712;28;20026;-89
2022/12/07 02:41:39;;;;;;;4.20;2.00;;;13.20;93.60;;;;;;4957890;28;20043;-90
2022/12/07 02:44:12;;;;;;;4.20;1.73;;;13.20;93.60;;;;;;4991767;28;20081;-90
2022/12/07 02:46:44;;;;;;;2.40;1.73;;;13.30;93.60;;;;;;4991890;28;20030;-90
2022/12/07 02:49:10;;;;;;;2.08;1.55;;;13.20;93.60;;;;;;4991608;28;20034;-90
2022/12/07 02:51:41;;;;;;;2.85;1.80;;;13.20;93.60;;;;;;4991825;28;20035;-89
2022/12/07 02:54:15;;;;;;;4.22;1.83;;;13.20;93.60;;;;;;4991732;28;20031;-90
2022/12/07 02:56:44;;;;;;;6.50;1.77;;;13.30;93.70;;;;;;4991982;28;20045;-90
2022/12/07 02:59:30;;;;;;;1.85;1.50;;;13.20;93.60;;;;;;4975139;28;20557;-89
2022/12/07 03:02:18;;;;;;;7.00;2.00;;;13.20;93.60;;;;;;4975386;28;20488;-90
2022/12/07 03:05:05;;;;;;;4.88;1.70;;;13.20;93.60;;;;;;4975218;28;20030;-90
2022/12/07 03:07:59;;;;;;;4.22;1.88;;;13.30;93.70;;;;;;5000744;28;20104;-89
2022/12/07 03:10:43;;;;;;;5.32;1.83;;;13.20;94.00;;;;;;5011953;28;20502;-89
2022/12/07 03:13:14;;;;;;;4.38;1.48;;;13.20;93.70;;;;;;5012042;28;20029;-89
2022/12/07 03:16:02;;;;;;;2.85;1.63;;;13.20;93.80;;;;;;5011812;28;20112;-90
2022/12/07 03:18:31;;;;;;;5.20;1.80;;;13.20;93.70;;;;;;5011641;28;20029;-91
2022/12/07 03:21:03;;;;;;;2.45;1.88;;;13.20;93.80;;;;;;5012042;28;20034;-89
2022/12/07 03:23:31;;;;;;;5.88;1.80;;;13.20;93.80;;;;;;5011770;28;20399;-89
2022/12/07 03:26:00;;;;;;;6.20;1.80;;;13.20;93.80;;;;;;5009823;28;20026;-89
2022/12/07 03:28:31;;;;;;;3.28;1.80;;;13.20;93.80;;;;;;5011411;28;20032;-89
2022/12/07 03:31:09;;;;;;;3.55;2.05;;;13.20;93.80;;;;;;5011492;28;20045;-90
2022/12/07 03:33:46;;;;;;;1.90;1.73;;;13.20;93.80;;;;;;5011696;28;20156;-90
2022/12/07 03:36:37;;;;;;;5.45;1.73;;;13.20;93.80;;;;;;5011414;28;20044;-89
2022/12/07 03:39:03;;;;;;;2.97;1.77;;;13.20;93.90;;;;;;5011302;28;20022;-89
2022/12/07 03:41:32;;;;;;;5.13;1.90;;;13.20;93.90;;;;;;5011395;28;20395;-90
2022/12/07 03:43:58;;;;;;;1.13;1.03;;;13.20;94.20;;;;;;5011343;28;20124;-90
2022/12/07 03:46:33;;;;;;;3.25;1.80;;;13.20;93.90;;;;;;5011678;28;20280;-90
2022/12/07 03:49:07;;;;;;;3.78;1.65;;;13.30;93.90;;;;;;5011660;28;20606;-90
2022/12/07 03:51:56;;;;;;;2.47;1.60;;;13.20;93.90;;;;;;5011398;28;20034;-90
2022/12/07 03:54:32;;;;;;;4.78;1.58;;;13.20;93.90;;;;;;5011489;28;20022;-91
2022/12/07 03:56:59;;;;;;;2.63;1.58;;;13.20;93.90;;;;;;5011392;28;20033;-89
2022/12/07 03:59:26;;;;;;;2.90;1.75;;;13.20;93.90;;;;;;5011383;28;20109;-89
2022/12/07 04:01:57;;;;;;;4.38;2.10;;;13.20;93.90;;;;;;5011224;28;20164;-89
2022/12/07 04:04:24;;;;;;;3.00;1.52;;;13.20;93.90;;;;;;5011071;28;20026;-90
2022/12/07 04:06:50;;;;;;;2.70;1.80;;;13.20;93.90;;;;;;5011317;28;20030;-89
2022/12/07 04:09:16;;;;;;;4.28;2.67;;;13.20;93.90;;;;;;5011086;28;20032;-89
2022/12/07 04:11:42;;;;;;;3.97;1.70;;;13.20;93.90;;;;;;5011115;28;20076;-89
2022/12/07 04:14:20;;;;;;;6.70;2.38;;;13.20;93.90;;;;;;5014334;28;20028;-89
2022/12/07 04:16:51;;;;;;;7.10;1.77;;;13.20;93.90;;;;;;5023828;28;20046;-90
2022/12/07 04:19:19;;;;;;;2.65;1.95;;;13.20;94.10;;;;;;5020309;28;20041;-90
2022/12/07 04:21:45;;;;;;;6.03;1.80;;;13.20;94.20;;;;;;5007869;28;20029;-90
2022/12/07 04:24:12;;;;;;;4.85;1.60;;;13.20;94.20;;;;;;5007820;28;20026;-89
2022/12/07 04:26:38;;;;;;;2.03;1.65;;;13.20;94.30;;;;;;5007662;28;20117;-89
2022/12/07 04:29:04;;;;;;;6.70;2.28;;;13.20;94.40;;;;;;5007840;28;20110;-89
2022/12/07 04:31:29;;;;;;;3.85;1.67;;;13.20;94.40;;;;;;5007693;28;20066;-90
2022/12/07 04:33:55;;;;;;;2.42;1.63;;;13.20;94.40;;;;;;5007721;28;20026;-89
2022/12/07 04:36:20;;;;;;;2.95;1.45;;;13.30;94.40;;;;;;5007634;28;20373;-90
2022/12/07 04:38:46;;;;;;;2.13;1.40;;;13.20;94.50;;;;;;5007529;28;20026;-89
2022/12/07 04:41:12;;;;;;;5.05;2.10;;;13.30;94.60;;;;;;5007684;28;20030;-90
2022/12/07 04:43:38;;;;;;;7.45;1.67;;;13.30;94.50;;;;;;5007858;28;20033;-89
2022/12/07 04:46:03;;;;;;;3.25;1.67;;;13.30;94.40;;;;;;5007672;28;20500;-90
2022/12/07 04:48:29;;;;;;;5.28;2.20;;;13.30;94.30;;;;;;5007453;28;20073;-90
2022/12/07 04:50:55;;;;;;;2.20;1.30;;;13.30;94.30;;;;;;5009830;28;20038;-90
2022/12/07 04:53:20;;;;;;;4.60;1.58;;;13.30;94.60;;;;;;5011175;28;20019;-90
2022/12/07 04:55:46;;;;;;;2.88;1.98;;;13.30;94.30;;;;;;5010937;28;20030;-90
2022/12/07 04:58:13;;;;;;;4.43;1.67;;;13.20;94.30;;;;;;5011115;28;20028;-90
2022/12/07 05:00:39;;;;;;;2.13;1.60;;;13.30;94.30;;;;;;5011300;28;20033;-89
2022/12/07 05:03:05;;;;;;;7.97;2.08;;;13.30;94.30;;;;;;5011103;28;20041;-90
2022/12/07 05:05:31;;;;;;;8.98;2.00;;;13.30;94.30;;;;;;5010974;28;20058;-89
2022/12/07 05:07:56;;;;;;;9.15;2.47;;;13.30;94.30;;;;;;5011282;28;20541;-89
2022/12/07 05:10:22;;;;;;;5.43;1.80;;;13.40;94.40;;;;;;5011170;28;20037;-91
2022/12/07 05:12:48;;;;;;;5.28;2.05;;;13.30;94.30;;;;;;5011103;28;20113;-89
2022/12/07 05:15:14;;;;;;;4.68;2.08;;;13.30;94.20;;;;;;5011146;28;20037;-90
2022/12/07 05:17:40;;;;;;;3.85;2.00;;;13.30;94.20;;;;;;5010727;28;20073;-90
2022/12/07 05:20:06;;;;;;;7.75;1.98;;;13.30;94.20;;;;;;5010843;28;20487;-90
2022/12/07 05:22:32;;;;;;;7.80;1.88;;;13.20;94.20;;;;;;5010654;28;20050;-90
2022/12/07 05:24:57;;;;;;;8.80;2.22;;;13.30;94.20;;;;;;5010646;28;20034;-90
2022/12/07 05:27:23;;;;;;;6.32;1.80;;;13.20;94.10;;;;;;5010760;28;20029;-90
2022/12/07 05:29:50;;;;;;;3.63;1.88;;;13.20;94.10;;;;;;5010336;28;20034;-90
2022/12/07 05:32:16;;;;;;;3.53;1.75;;;13.30;94.20;;;;;;5010389;28;20487;-90
2022/12/07 05:34:42;;;;;;;8.70;2.20;;;13.20;94.10;;;;;;5010839;28;20033;-89
2022/12/07 05:37:07;;;;;;;7.80;1.90;;;13.20;94.10;;;;;;5010458;28;20019;-89
2022/12/07 05:39:33;;;;;;;2.97;1.80;;;13.20;94.50;;;;;;5010215;28;20113;-90
2022/12/07 05:42:13;;;;;;;3.20;1.75;;;13.20;94.20;;;;;;5010304;28;20027;-90
2022/12/07 05:44:44;;;;;;;24.70;2.63;;;13.20;94.30;;;;;;5010357;28;20022;-90
2022/12/07 05:47:11;;;;;;;11.25;1.95;;;13.20;94.30;;;;;;5010069;28;20125;-90
2022/12/07 05:49:37;;;;;;;6.38;1.83;;;13.20;94.30;;;;;;5011675;28;20030;-90
2022/12/07 05:52:03;;;;;;;3.30;1.50;;;13.20;94.30;;;;;;5010094;28;20029;-88
2022/12/07 05:54:29;;;;;;;12.88;2.00;;;13.20;94.30;;;;;;5010110;28;20033;-90
2022/12/07 05:56:55;;;;;;;4.28;1.70;;;13.10;94.20;;;;;;5010056;28;20026;-90
2022/12/07 05:59:23;;;;;;;9.77;2.20;;;13.10;94.30;;;;;;5009937;28;20037;-90
2022/12/07 06:02:03;;;;;;;3.90;1.75;;;13.20;94.30;;;;;;5009587;28;20058;-90
2022/12/07 06:04:32;;;;;;;3.00;1.95;;;13.10;94.20;;;;;;5009843;28;20038;-90
2022/12/07 06:06:58;;;;;;;5.90;1.67;;;13.20;94.30;;;;;;5009723;28;20026;-89
2022/12/07 06:09:25;;;;;;;4.68;1.67;;;13.10;94.20;;;;;;5009837;28;20030;-91
2022/12/07 06:14:36;;;;;;;4.40;1.92;;;13.10;94.20;;;;;;4994818;28;20042;-90
2022/12/07 06:17:01;;;;;;;7.18;1.90;;;13.10;94.20;;;;;;5009598;28;20027;-90
2022/12/07 06:19:27;;;;;;;10.48;2.00;;;13.10;94.20;;;;;;5010174;28;20426;-90
2022/12/07 06:21:53;;;;;;;3.67;1.45;;;13.10;94.20;;;;;;5009915;28;20116;-90
2022/12/07 06:24:19;;;;;;;2.95;1.70;;;13.10;94.20;;;;;;5009452;28;20030;-89
2022/12/07 06:26:45;;;;;;;8.98;2.00;;;13.00;94.20;;;;;;5009676;28;20031;-91
2022/12/07 06:29:11;;;;;;;4.38;1.45;;;13.10;94.20;;;;;;5018217;28;20026;-91
2022/12/07 06:31:37;;;;;;;7.20;2.55;;;13.10;94.20;;;;;;5008513;28;20471;-90
2022/12/07 06:34:10;;;;;;;4.97;2.20;;;13.10;94.30;;;;;;5019794;28;20027;-90
2022/12/07 06:36:36;;;;;;;7.60;1.80;;;13.10;94.20;;;;;;5005455;28;20109;-90
2022/12/07 06:39:02;;;;;;;4.65;2.08;;;13.00;94.20;;;;;;4994414;28;20027;-91
2022/12/07 06:41:27;;;;;;;5.15;1.52;;;13.10;94.20;;;;;;5017106;28;20088;-90
2022/12/07 06:43:53;;;;;;;3.88;1.55;;;13.00;94.10;;;;;;5002149;28;20027;-91
2022/12/07 06:46:19;;;;;;;4.00;1.92;;;13.10;94.10;;;;;;5004308;28;20057;-91
2022/12/07 06:48:44;;;;;;;4.85;1.63;;;13.10;94.10;;;;;;5016193;28;20585;-88
2022/12/07 06:51:10;;;;;;;5.55;2.42;;;13.10;94.10;;;;;;5011952;28;20088;-90
2022/12/07 06:53:36;;;;;;;3.60;1.70;;;13.00;94.10;;;;;;5003823;28;20478;-87
2022/12/07 06:56:03;;;;;;;3.35;1.77;;;13.10;94.10;;;;;;5012139;28;20025;-87
2022/12/07 06:58:29;;;;;;;3.33;1.63;;;13.00;94.10;;;;;;5012408;28;20026;-88
2022/12/07 07:00:54;;;;;;;13.05;2.78;;;13.10;94.10;;;;;;4995790;28;20141;-89
2022/12/07 07:03:20;;;;;;;6.68;1.52;;;13.10;94.10;;;;;;5010836;28;20086;-90
2022/12/07 07:05:45;;;;;;;7.05;1.65;;;13.10;94.10;;;;;;5011942;28;20025;-91
2022/12/07 07:08:11;;;;;;;3.20;1.80;;;13.10;94.10;;;;;;5005598;28;20034;-89
2022/12/07 07:10:37;;;;;;;3.40;1.60;;;13.10;94.10;;;;;;5004521;28;20026;-89
2022/12/07 07:13:03;;;;;;;3.67;2.25;;;13.10;94.10;;;;;;5012871;28;20037;-90
2022/12/07 07:15:29;;;;;;;4.93;1.90;;;13.00;94.10;;;;;;5007387;28;20021;-90
2022/12/07 07:17:54;;;;;;;5.95;1.77;;;13.10;94.10;;;;;;5018363;28;20026;-91
2022/12/07 07:20:20;;;;;;;3.22;1.70;;;13.00;94.10;;;;;;5008918;28;20022;-92
2022/12/07 07:22:45;;;;;;;9.02;2.35;;;13.10;94.10;;;;;;5017212;28;20483;-95
2022/12/07 07:25:11;;;;;;;3.67;1.60;;;13.00;94.00;;;;;;5018226;28;20061;-96
2022/12/07 07:27:37;;;;;;;9.85;4.15;;;13.10;94.10;;;;;;5025863;28;20041;-95
2022/12/07 07:30:04;;;;;;;14.50;5.35;;;12.70;89.10;;;;;;5051373;28;20029;-96
2022/12/07 07:33:03;;;;;;;10.63;5.63;;;12.60;83.40;;;;;;5020455;28;20056;-92
2022/12/07 07:35:29;;;;;;;;;;;12.60;76.90;;;;;;5012827;28;20087;-91
2022/12/07 07:37:56;;;;;;;18.83;5.95;;;12.20;77.40;;;;;;5027910;28;19913;-91
2022/12/07 07:40:22;;;;;;;16.83;6.03;;;12.40;79.40;;;;;;5008258;28;20069;-91
2022/12/07 07:42:49;;;;;;;27.60;7.15;;;12.70;80.20;;;;;;5003616;28;20483;-91
2022/12/07 07:45:15;;;;;;;24.58;6.20;;;12.90;80.90;;;;;;5012923;28;20026;-90
2022/12/07 07:48:00;;;;;;;28.13;6.50;;;13.00;81.70;;;;;;4996829;28;20391;-92
2022/12/07 07:50:25;;;;;;;23.52;5.35;;;13.10;82.50;;;;;;4992983;28;20026;-91
2022/12/07 07:52:52;;;;;;;18.95;5.43;;;13.30;83.20;;;;;;4993434;28;20465;-93
2022/12/07 07:55:17;;;;;;;26.98;5.10;;;13.30;83.90;;;;;;5005743;28;20018;-88
2022/12/07 07:57:43;;;;;;;16.63;5.20;;;13.40;84.60;;;;;;5003940;28;20030;-88
2022/12/07 08:00:12;;;;;;;30.25;4.90;;;13.40;85.70;;;;;;4996114;28;20054;-89
2022/12/07 08:02:37;;;;;;;15.52;5.00;;;13.50;85.60;;;;;;4984560;28;20395;-87
2022/12/07 08:05:04;;;;;;;13.73;4.10;;;13.60;85.90;;;;;;4981711;28;20035;-91
2022/12/07 08:07:29;;;;;;;20.30;5.10;;;13.70;86.40;;;;;;4986900;28;20026;-90
2022/12/07 08:09:55;;;;;;;15.48;4.50;;;13.70;86.70;;;;;;4990807;28;20041;-90
2022/12/07 08:12:21;;;;;;;16.48;4.35;;;13.80;87.00;;;;;;4980299;28;20033;-90
2022/12/07 08:14:46;;;;;;;15.57;3.85;;;13.80;87.20;;;;;;4992546;28;20034;-89
2022/12/07 08:17:12;;;;;;;21.65;4.20;;;13.80;87.60;;;;;;4992848;28;20373;-90
2022/12/07 08:19:38;;;;;;;12.60;3.67;;;13.90;88.00;;;;;;4992584;28;20057;-88
2022/12/07 08:22:03;;;;;;;11.68;3.67;;;13.90;88.30;;;;;;4992466;28;20113;-89
2022/12/07 08:24:29;;;;;;;12.48;3.78;;;13.90;88.60;;;;;;4993739;28;20534;-89
2022/12/07 08:26:54;;;;;;;7.57;3.50;;;13.90;88.90;;;;;;4979522;28;20443;-89
2022/12/07 08:29:20;;;;;;;13.40;3.67;;;13.90;89.20;;;;;;4990033;28;20169;-90
2022/12/07 08:31:46;;;;;;;14.65;3.50;;;13.90;89.50;;;;;;4995939;28;20030;-91
2022/12/07 08:34:12;;;;;;;14.63;3.10;;;13.90;89.80;;;;;;4995814;28;20025;-91
2022/12/07 08:36:38;;;;;;;13.48;3.58;;;13.80;89.90;;;;;;4995899;28;20029;-90
2022/12/07 08:39:04;;;;;;;8.27;2.88;;;13.80;90.00;;;;;;4996052;28;20086;-90
2022/12/07 08:41:29;;;;;;;14.90;3.72;;;13.80;90.10;;;;;;4996944;28;20022;-90
2022/12/07 08:43:58;;;;;;;11.25;3.47;;;13.80;90.20;;;;;;4996920;28;20053;-90
2022/12/07 08:46:28;;;;;;;10.45;3.28;;;13.80;90.30;;;;;;4996939;28;20022;-89
2022/12/07 08:49:03;;;;;;;12.65;2.95;;;13.80;90.40;;;;;;4986720;28;20023;-90
2022/12/07 08:51:28;;;;;;;13.35;3.20;;;13.80;90.50;;;;;;4993011;28;20027;-89
2022/12/07 08:53:56;;;;;;;15.25;3.70;;;13.80;90.50;;;;;;4992375;28;20038;-91
2022/12/07 08:56:22;;;;;;;15.63;3.58;;;13.80;90.60;;;;;;4992605;28;20022;-90
2022/12/07 08:58:48;;;;;;;10.90;3.03;;;13.70;90.60;;;;;;4995393;28;20023;-90
2022/12/07 09:01:14;;;;;;;9.63;3.50;;;13.70;90.70;;;;;;4990592;28;20383;-89
2022/12/07 09:03:39;;;;;;;7.05;3.00;;;13.80;90.70;;;;;;4976855;28;20109;-90
2022/12/07 09:06:06;;;;;;;6.78;3.05;;;13.80;90.80;;;;;;5011061;28;20113;-90
2022/12/07 09:08:38;;;;;;;9.32;3.42;;;13.70;90.80;;;;;;4995641;28;20044;-91
2022/12/07 09:11:04;;;;;;;7.05;3.40;;;13.70;90.90;;;;;;4996093;28;20030;-90
2022/12/07 09:13:29;;;;;;;11.50;3.40;;;13.70;90.90;;;;;;4995674;28;20113;-89
2022/12/07 09:15:55;;;;;;;6.47;2.75;;;13.70;90.90;;;;;;4994846;28;20472;-90
2022/12/07 09:18:21;;;;;;;8.77;2.85;;;13.80;91.00;;;;;;4995344;28;20026;-90
2022/12/07 09:20:46;;;;;;;11.38;2.97;;;13.70;91.00;;;;;;4995755;28;20026;-88
2022/12/07 09:23:12;;;;;;;8.05;3.15;;;13.70;91.00;;;;;;4995082;28;20373;-90
2022/12/07 09:25:38;;;;;;;6.30;2.80;;;13.80;91.00;;;;;;5007269;28;20522;-90
2022/12/07 09:28:03;;;;;;;9.52;2.80;;;13.80;91.10;;;;;;5015320;28;20029;-89
2022/12/07 09:30:29;;;;;;;13.77;3.40;;;13.70;91.10;;;;;;5014461;28;20030;-90
2022/12/07 09:32:56;;;;;;;6.28;2.70;;;13.70;91.10;;;;;;4996642;28;20027;-90
2022/12/07 09:35:23;;;;;;;12.30;3.17;;;13.70;91.10;;;;;;5004330;28;20037;-89
2022/12/07 09:37:48;;;;;;;7.45;2.67;;;13.80;91.10;;;;;;4994500;28;20027;-89
2022/12/07 09:40:16;;;;;;;5.88;2.40;;;13.80;91.10;;;;;;4994585;28;20097;-89
2022/12/07 09:42:47;;;;;;;7.50;3.13;;;13.70;91.10;;;;;;4996158;28;20027;-89
2022/12/07 09:45:25;;;;;;;4.20;2.63;;;13.80;91.20;;;;;;5013881;28;20120;-87
2022/12/07 09:47:51;;;;;;;4.13;2.20;;;13.70;91.20;;;;;;4994935;28;20035;-88
2022/12/07 09:50:24;;;;;;;8.10;3.20;;;13.80;91.20;;;;;;4993948;28;20026;-86
2022/12/07 09:52:51;;;;;;;6.25;3.00;;;13.80;91.20;;;;;;4996147;28;20061;-89
2022/12/07 09:55:24;;;;;;;13.35;2.92;;;13.80;91.20;;;;;;5013385;28;20093;-87
2022/12/07 09:57:51;;;;;;;6.05;2.50;;;13.80;91.20;;;;;;5013586;28;20018;-85
2022/12/07 10:00:21;;;;;;;3.90;2.33;;;13.80;91.30;;;;;;5001658;28;20381;-90
2022/12/07 10:02:53;;;;;;;7.22;2.38;;;13.80;91.30;;;;;;4994457;28;20034;-89
2022/12/07 10:05:24;;;;;;;4.03;2.28;;;13.80;91.30;;;;;;4975050;28;20082;-89
2022/12/07 10:07:50;;;;;;;6.88;2.60;;;13.90;91.30;;;;;;4974932;28;20026;-89
2022/12/07 10:10:24;;;;;;;7.07;3.00;;;13.90;91.30;;;;;;5008402;28;20475;-89
2022/12/07 10:13:05;;;;;;;2.85;2.22;;;13.80;91.30;;;;;;4992704;28;20022;-90
2022/12/07 10:15:52;;;;;;;4.32;2.20;;;13.90;91.40;;;;;;4983622;28;20026;-89
2022/12/07 10:18:35;;;;;;;6.57;2.25;;;13.90;91.40;;;;;;4986691;28;20050;-90
2022/12/07 10:21:04;;;;;;;6.38;2.65;;;13.90;91.40;;;;;;4997715;28;20051;-88
2022/12/07 10:23:30;;;;;;;4.97;2.58;;;13.80;91.30;;;;;;4988754;28;20034;-90
2022/12/07 10:25:55;;;;;;;5.82;2.67;;;13.90;91.40;;;;;;4991068;28;20030;-87
2022/12/07 10:28:22;;;;;;;5.60;2.33;;;13.90;91.40;;;;;;4987825;28;20069;-90
2022/12/07 10:30:59;;;;;;;3.92;2.45;;;13.90;91.40;;;;;;5001820;28;20029;-89
2022/12/07 10:33:28;;;;;;;5.25;2.30;;;13.90;91.40;;;;;;4996353;28;20026;-88
2022/12/07 10:35:54;;;;;;;6.47;2.17;;;13.90;91.40;;;;;;5009132;28;20022;-88
2022/12/07 10:38:20;;;;;;;5.90;2.30;;;13.90;91.40;;;;;;4979131;28;20037;-88
2022/12/07 10:40:45;;;;;;;4.57;2.42;;;13.90;91.40;;;;;;4993995;28;20023;-87
2022/12/07 10:43:14;;;;;;;10.70;2.47;;;13.90;91.40;;;;;;4986392;28;20549;-87
2022/12/07 10:46:17;;;;;;;4.00;1.92;;;13.90;91.40;;;;;;4985603;28;20057;-88
2022/12/07 10:49:20;;;;;;;4.35;2.15;;;13.90;91.40;;;;;;5006399;28;20432;-88
2022/12/07 10:52:17;;;;;;;2.58;1.80;;;13.90;91.50;;;;;;5005689;28;20120;-86
2022/12/07 10:55:04;;;;;;;6.57;2.28;;;14.00;91.50;;;;;;5002971;28;20023;-89
2022/12/07 10:57:55;;;;;;;5.43;2.10;;;14.00;91.50;;;;;;4988567;28;20018;-90
2022/12/07 11:00:25;;;;;;;3.60;1.98;;;14.00;91.50;;;;;;4997289;28;20023;-90
2022/12/07 11:03:10;;;;;;;5.05;2.17;;;14.00;91.50;;;;;;4985033;28;20026;-89
2022/12/07 11:05:45;;;;;;;3.42;2.10;;;14.00;91.50;;;;;;5021560;28;20031;-86
2022/12/07 11:08:47;;;;;;;3.53;2.10;;;14.00;91.50;;;;;;5005770;28;20476;-87
2022/12/07 11:11:31;;;;;;;4.30;2.03;;;14.00;91.50;;;;;;4998376;28;20476;-85
2022/12/07 11:14:25;;;;;;;3.28;2.10;;;14.00;91.60;;;;;;4989850;28;20057;-88
2022/12/07 11:16:57;;;;;;;3.92;2.30;;;14.00;91.60;;;;;;4989862;28;20022;-89
2022/12/07 11:19:32;;;;;;;2.85;1.88;;;14.10;91.60;;;;;;4993040;28;20030;-90
2022/12/07 11:22:02;;;;;;;4.57;1.90;;;14.10;91.60;;;;;;4995212;28;20089;-89
2022/12/07 11:24:49;;;;;;;5.97;1.90;;;14.10;91.60;;;;;;5012205;28;20026;-90
2022/12/07 11:27:47;;;;;;;3.70;2.05;;;14.10;91.60;;;;;;4994667;28;20516;-90
2022/12/07 11:30:15;;;;;;;6.53;2.20;;;14.10;91.60;;;;;;5002044;28;20034;-90
2022/12/07 11:32:52;;;;;;;4.20;2.00;;;14.10;91.70;;;;;;5028439;28;20026;-89
2022/12/07 11:35:36;;;;;;;3.63;1.90;;;14.10;91.70;;;;;;5006377;28;20022;-89
2022/12/07 11:38:14;;;;;;;4.80;2.03;;;14.20;91.70;;;;;;5008766;28;20014;-89
2022/12/07 11:40:46;;;;;;;13.05;2.00;;;14.20;91.80;;;;;;5002891;28;20019;-87
2022/12/07 11:43:25;;;;;;;11.40;2.58;;;14.20;91.80;;;;;;4979657;28;20072;-88
2022/12/07 11:46:12;;;;;;;7.70;2.03;;;14.30;91.90;;;;;;4996838;28;20081;-90
2022/12/07 11:48:53;;;;;;;3.63;2.33;;;14.30;91.80;;;;;;4991875;28;20048;-90
2022/12/07 11:51:20;;;;;;;4.55;1.75;;;14.30;91.80;;;;;;5009462;28;20026;-87
2022/12/07 11:53:56;;;;;;;4.60;2.38;;;14.30;91.80;;;;;;5006799;28;20042;-90
2022/12/07 11:56:26;;;;;;;6.57;2.15;;;14.30;91.90;;;;;;4996582;28;20066;-90
2022/12/07 11:59:10;;;;;;;7.43;2.33;;;14.20;91.90;;;;;;4972844;28;20023;-89
2022/12/07 12:01:38;;;;;;;3.90;1.85;;;14.20;91.90;;;;;;4989194;28;20029;-89
2022/12/07 12:04:10;;;;;;;5.75;2.13;;;14.20;91.90;;;;;;5032352;28;20029;-88
2022/12/07 12:06:41;;;;;;;2.13;1.65;;;14.20;91.90;;;;;;5017243;28;20030;-90
2022/12/07 12:09:07;;;;;;;3.08;1.90;;;14.20;91.90;;;;;;5013109;28;20026;-86
2022/12/07 12:11:47;;;;;;;4.90;1.83;;;14.20;91.90;;;;;;5015567;28;20030;-86
2022/12/07 12:14:38;;;;;;;2.63;1.58;;;14.20;91.90;;;;;;5023747;28;20026;-90
2022/12/07 12:17:19;;;;;;;7.38;1.83;;;14.20;91.90;;;;;;5011090;28;20027;-90
2022/12/07 12:20:03;;;;;;;2.58;2.30;;;14.20;91.90;;;;;;5011981;28;20267;-90
2022/12/07 12:22:55;;;;;;;5.10;2.30;;;14.20;91.90;;;;;;5002880;28;20038;-90
2022/12/07 12:25:25;;;;;;;4.63;1.73;;;14.20;91.90;;;;;;4995577;28;20057;-89
2022/12/07 12:27:55;;;;;;;2.75;1.83;;;14.20;91.90;;;;;;5012291;28;20081;-89
2022/12/07 12:30:31;;;;;;;3.53;2.17;;;14.20;91.90;;;;;;5012257;28;20045;-89
2022/12/07 12:33:17;;;;;;;1.50;1.40;;;14.20;92.20;;;;;;5012358;28;20034;-89
2022/12/07 12:35:43;;;;;;;4.97;1.85;;;14.20;91.90;;;;;;4998067;28;20029;-88
2022/12/07 12:38:30;;;;;;;3.42;1.52;;;14.20;92.00;;;;;;4995363;28;20121;-89
2022/12/07 12:40:56;;;;;;;4.20;1.80;;;14.20;91.90;;;;;;5013278;28;20026;-89
2022/12/07 12:43:42;;;;;;;3.38;1.73;;;14.20;91.90;;;;;;4997032;28;20022;-87
2022/12/07 12:46:33;;;;;;;3.65;2.00;;;14.20;92.00;;;;;;5012892;28;20029;-89
2022/12/07 12:49:20;;;;;;;2.72;1.88;;;14.20;92.00;;;;;;5012913;28;20018;-92
2022/12/07 12:51:53;;;;;;;4.13;2.15;;;14.20;92.00;;;;;;5012099;28;20062;-90
2022/12/07 12:54:21;;;;;;;10.80;1.90;;;14.20;92.00;;;;;;4997988;28;20022;-91
2022/12/07 12:57:09;;;;;;;3.35;1.92;;;14.20;92.00;;;;;;5013796;28;20029;-89
2022/12/07 12:59:39;;;;;;;4.05;1.90;;;14.20;92.00;;;;;;5015821;28;20042;-90
2022/12/07 13:02:23;;;;;;;4.47;1.83;;;14.20;92.00;;;;;;5016364;28;20021;-88
2022/12/07 13:05:12;;;;;;;12.25;1.70;;;14.20;92.00;;;;;;5015111;28;20261;-89
2022/12/07 13:07:47;;;;;;;2.92;2.00;;;14.20;92.00;;;;;;4996638;28;20084;-89